Weather at Al Dhafra Beach Hotel Heliport

Public forecast

Using degrees Celsius for public forecast. Weather courtesy of forecast.io.

Closest aviation weather report (METAR) to Al Dhafra Beach Hotel Heliport

Closest report is Hamad International Airport, 87.4 nm (162.0 km) NW.

2024/07/24 21:00 (retrieved 39 minutes ago)

OTHH 242100Z AUTO 21006KT 180V260 CAVOK 36/22 Q0992 NOSIG

Closest aviation forecast (TAF) to Al Dhafra Beach Hotel Heliport

Closest forecast is Hamad International Airport, 87.4 nm (162.0 km) NW.

2024/07/24 18:00 (retrieved 4 hours ago)

TAF OTHH 241700Z 2418/2524 25008KT CAVOK TEMPO 2418/2421 18005KT TEMPO 2418/2500 VRB02KT BECMG 2506/2508 09008KT